»·PEaware :: AAL495 KPHX-KLAX

AAL495 :: KPHX-KLAX

FLIGHT INFORMATION

Flight Status: Arrived
Operator:
American Airlines
More flights by this operator :: More flights under this callsign
Pilot: Brett L. (10300)
Aircraft: BOEING 737-800
(B738)
More flights by this aircraft type
Origin: KPHX Phoenix Sky Harbor Intl
United States
Destination: KLAX Los Angeles Intl
United States
More flights between these airports :: More routes between these airports
Route: +IZZZO6 MESSI ESTWD HLYWD1
File this flight plan on PilotEdge
Remarks:
Altitude:
(Current/Filed)
32,000ft
Speed:
(Current/Filed)
460kts
Departed: 30-Sep-17 06:41 PM
Arrived: 30-Sep-17 07:38 PM
Distance/Time
Traveled:
321nm/0:56
Distance/Time
To Go:
Arrived

Flight Plot

Page will automatically refresh every two minutes.

Flight plan parsing failed; only flown route is shown


Map Options




Map Legend


Flown Route
Filed Route
Departure Airport
Arrival Airport
Navaid (VOR, NDB)
Fix

Horizontal Profiles

Position Reports

Time Latitude Longitude Heading Altitude Ground
Speed
30-Sep-17 18:33 33.437447 -112.008142 270 1143ft 0kts
30-Sep-17 18:34 33.437447 -112.008144 270 1143ft 0kts
30-Sep-17 18:35 33.437447 -112.008146 270 1143ft 0kts
30-Sep-17 18:36 33.437447 -112.008147 270 1143ft 0kts
30-Sep-17 18:37 33.437447 -112.008149 270 1143ft 0kts
30-Sep-17 18:38 33.437447 -112.008149 270 1143ft 0kts
30-Sep-17 18:39 33.437447 -112.008149 270 1143ft 0kts
30-Sep-17 18:40 33.437447 -112.008000 270 1143ft 2kts
30-Sep-17 18:41 33.437445 -112.007083 270 1143ft 0kts
30-Sep-17 18:42 33.438900 -112.007263 24 1143ft 6kts
30-Sep-17 18:43 33.439740 -112.000419 90 1143ft 16kts
30-Sep-17 18:44 33.439758 -111.994113 89 1143ft 22kts
30-Sep-17 18:45 33.440837 -111.993342 269 1143ft 55kts
30-Sep-17 18:46 33.441062 -112.042268 270 3982ft 160kts
30-Sep-17 18:47 33.443250 -112.102534 270 7041ft 210kts
30-Sep-17 18:48 33.446067 -112.185288 270 9504ft 284kts
30-Sep-17 18:49 33.448383 -112.286212 270 12235ft 336kts
30-Sep-17 18:50 33.449880 -112.404418 270 15045ft 364kts
30-Sep-17 18:51 33.450081 -112.527533 270 18058ft 376kts
30-Sep-17 18:52 33.448981 -112.655571 270 20554ft 390kts
30-Sep-17 18:53 33.446792 -112.787283 270 22713ft 404kts
30-Sep-17 18:54 33.443750 -112.924302 270 24646ft 415kts
30-Sep-17 18:55 33.440728 -113.063708 272 26415ft 424kts
30-Sep-17 18:56 33.484160 -113.193319 300 28034ft 431kts
30-Sep-17 18:57 33.548190 -113.316388 300 29728ft 433kts
30-Sep-17 18:58 33.592142 -113.401167 300 31142ft 429kts
30-Sep-17 18:59 33.655487 -113.522891 300 31805ft 428kts
30-Sep-17 19:00 33.717919 -113.643550 300 31822ft 425kts
30-Sep-17 19:01 33.780228 -113.764889 300 31824ft 435kts
30-Sep-17 19:02 33.832719 -113.898772 291 31813ft 443kts
30-Sep-17 19:03 33.879025 -114.036109 291 31796ft 443kts
30-Sep-17 19:04 33.916285 -114.177548 281 31789ft 443kts
30-Sep-17 19:05 33.940604 -114.322951 281 31784ft 443kts
30-Sep-17 19:06 33.964878 -114.468475 281 31771ft 444kts
30-Sep-17 19:07 33.989517 -114.614721 281 31777ft 444kts
30-Sep-17 19:08 34.013969 -114.760092 281 31782ft 440kts
30-Sep-17 19:09 34.037646 -114.904699 281 31783ft 440kts
30-Sep-17 19:10 34.061231 -115.049609 281 31792ft 439kts
30-Sep-17 19:11 34.084529 -115.193743 281 31800ft 438kts
30-Sep-17 19:12 34.107916 -115.338252 281 31815ft 437kts
30-Sep-17 19:13 34.131151 -115.482109 281 31829ft 436kts
30-Sep-17 19:14 34.153846 -115.625924 281 31847ft 436kts
30-Sep-17 19:15 34.156180 -115.772639 265 31867ft 439kts
30-Sep-17 19:16 34.141725 -115.918956 265 31889ft 439kts
30-Sep-17 19:17 34.127492 -116.065700 264 31909ft 447kts
30-Sep-17 19:18 34.112659 -116.214742 264 31918ft 441kts
30-Sep-17 19:19 34.097776 -116.360520 264 29960ft 439kts
30-Sep-17 19:20 34.082242 -116.504755 264 27228ft 424kts
30-Sep-17 19:21 34.067580 -116.639060 264 25648ft 391kts
30-Sep-17 19:22 34.055978 -116.767479 265 23603ft 376kts
30-Sep-17 19:23 34.044886 -116.890902 265 21626ft 363kts
30-Sep-17 19:24 34.030499 -117.001897 263 19571ft 359kts
30-Sep-17 19:25 34.016292 -117.118951 264 17774ft 345kts
30-Sep-17 19:26 34.002715 -117.232670 263 15855ft 339kts
30-Sep-17 19:27 33.989528 -117.343732 264 14014ft 334kts
30-Sep-17 19:28 33.976539 -117.453712 263 12282ft 326kts
30-Sep-17 19:29 33.983791 -117.555360 283 11304ft 284kts
30-Sep-17 19:30 33.999962 -117.643962 281 10403ft 265kts
30-Sep-17 19:31 34.002896 -117.735761 260 9248ft 282kts
30-Sep-17 19:32 33.992587 -117.829371 262 7893ft 274kts
30-Sep-17 19:33 33.984212 -117.915621 262 6783ft 243kts
30-Sep-17 19:34 33.976755 -117.991266 262 5939ft 214kts
30-Sep-17 19:35 33.970946 -118.049565 261 5286ft 209kts
30-Sep-17 19:36 33.963850 -118.120803 261 4283ft 210kts
30-Sep-17 19:37 33.957129 -118.188005 261 3165ft 184kts
30-Sep-17 19:38 33.951400 -118.244578 261 2330ft 160kts
30-Sep-17 19:39 33.946562 -118.294994 262 1555ft 139kts
30-Sep-17 19:40 33.942231 -118.337534 262 877ft 124kts
30-Sep-17 19:41 33.938008 -118.378807 261 220ft 122kts
30-Sep-17 19:42 33.936104 -118.402388 289 134ft 18kts
30-Sep-17 19:43 33.938703 -118.405215 354 134ft 21kts

Navigation Log

Ident Type
Flight plan parsing failed, navigation log unavailable